createdAt,value
2023-03-02T00:02:24.574Z,28.00
2023-03-02T00:04:58.483Z,33.17
2023-03-02T00:07:32.786Z,29.52
2023-03-02T00:12:32.416Z,32.53
2023-03-02T00:14:59.262Z,32.42
2023-03-02T00:17:29.039Z,34.92
2023-03-02T00:20:11.533Z,34.65
2023-03-02T00:22:39.787Z,39.72
2023-03-02T00:25:07.448Z,40.40
2023-03-02T00:27:34.593Z,33.78
2023-03-02T00:30:01.686Z,39.40
2023-03-02T00:32:28.594Z,39.42
2023-03-02T00:34:55.530Z,33.40
2023-03-02T00:37:22.362Z,33.17
2023-03-02T00:39:51.965Z,39.50
2023-03-02T00:42:18.982Z,31.95
2023-03-02T00:44:45.731Z,39.10
2023-03-02T00:47:12.830Z,32.08
2023-03-02T00:49:39.666Z,33.67
2023-03-02T00:52:06.733Z,33.10
2023-03-02T00:54:33.698Z,42.10
2023-03-02T00:57:00.492Z,34.38
2023-03-02T00:59:27.506Z,31.05
2023-03-02T01:01:59.053Z,46.45
2023-03-02T01:04:29.876Z,30.35
2023-03-02T01:07:02.100Z,34.33
2023-03-02T01:09:30.043Z,38.83
2023-03-02T01:11:57.088Z,35.30
2023-03-02T01:14:24.900Z,35.95
2023-03-02T01:16:51.981Z,32.40
2023-03-02T01:19:19.169Z,38.50
2023-03-02T01:21:46.060Z,35.28
2023-03-02T01:24:12.974Z,34.50
2023-03-02T01:26:39.821Z,29.80
2023-03-02T01:29:07.006Z,29.88
2023-03-02T01:31:33.992Z,34.70
2023-03-02T01:34:00.824Z,30.95
2023-03-02T01:36:27.693Z,33.38
2023-03-02T01:38:54.824Z,31.27
2023-03-02T01:41:21.708Z,28.48
2023-03-02T01:43:48.595Z,37.33
2023-03-02T01:46:23.522Z,30.67
2023-03-02T01:49:06.894Z,31.10
2023-03-02T01:51:42.150Z,29.42
2023-03-02T01:54:17.146Z,38.60
2023-03-02T01:56:45.913Z,31.90
2023-03-02T01:59:16.666Z,33.85
2023-03-02T02:01:47.112Z,33.90
2023-03-02T02:04:14.742Z,38.42
2023-03-02T02:06:48.109Z,30.30
2023-03-02T02:09:17.970Z,35.50
2023-03-02T02:11:44.902Z,28.88
2023-03-02T02:14:12.353Z,30.45
2023-03-02T02:16:40.402Z,30.85
2023-03-02T02:19:40.681Z,31.35
2023-03-02T02:22:10.642Z,37.05
2023-03-02T02:24:52.992Z,34.20
2023-03-02T02:27:19.843Z,34.75
2023-03-02T02:29:50.953Z,34.72
2023-03-02T02:32:26.599Z,31.42
2023-03-02T02:35:18.815Z,33.38
2023-03-02T02:37:51.390Z,30.90
2023-03-02T02:40:38.333Z,33.25
2023-03-02T02:43:06.408Z,22.08
2023-03-02T02:45:33.905Z,27.33
2023-03-02T02:48:00.854Z,29.80
2023-03-02T02:50:34.386Z,29.60
2023-03-02T02:53:05.537Z,19.98
2023-03-02T02:55:33.963Z,31.17
2023-03-02T02:58:10.055Z,26.63
2023-03-02T03:00:38.418Z,30.85
2023-03-02T03:03:29.301Z,35.47
2023-03-02T03:05:58.424Z,37.10
2023-03-02T03:08:43.997Z,28.38
2023-03-02T03:11:13.610Z,37.78
2023-03-02T03:13:43.047Z,28.25
2023-03-02T03:16:14.105Z,31.95
2023-03-02T03:18:44.797Z,30.95
2023-03-02T03:21:11.599Z,31.60
2023-03-02T03:23:38.649Z,37.80
2023-03-02T03:26:06.724Z,29.95
2023-03-02T03:28:34.161Z,31.85
2023-03-02T03:31:01.167Z,26.88
2023-03-02T03:33:28.349Z,30.65
2023-03-02T03:35:55.288Z,29.45
2023-03-02T03:38:22.156Z,33.92
2023-03-02T03:40:48.953Z,30.20
2023-03-02T03:43:16.483Z,30.20
2023-03-02T03:45:43.390Z,31.73
2023-03-02T03:48:10.263Z,27.58
2023-03-02T03:50:37.138Z,29.88
2023-03-02T03:53:04.147Z,37.60
2023-03-02T03:55:31.388Z,30.95
2023-03-02T03:57:58.264Z,32.58
2023-03-02T04:00:25.261Z,33.35
2023-03-02T04:02:52.175Z,37.95
2023-03-02T04:05:19.128Z,31.90
2023-03-02T04:07:46.046Z,29.75
2023-03-02T04:10:12.886Z,36.08
2023-03-02T04:12:42.406Z,32.42
2023-03-02T04:15:12.916Z,37.83
2023-03-02T04:17:39.727Z,32.15
2023-03-02T04:20:10.531Z,42.55
2023-03-02T04:22:37.329Z,29.67
2023-03-02T04:25:05.201Z,35.30
2023-03-02T04:27:32.089Z,32.25
2023-03-02T04:29:58.913Z,36.08
2023-03-02T04:32:25.763Z,38.55
2023-03-02T04:34:52.649Z,38.22
2023-03-02T04:37:21.001Z,29.92
2023-03-02T04:39:51.212Z,46.00
2023-03-02T04:42:19.589Z,42.72
2023-03-02T04:44:46.561Z,43.88
2023-03-02T04:47:13.511Z,39.42
2023-03-02T04:49:40.517Z,36.92
2023-03-02T04:52:07.335Z,32.10
2023-03-02T04:54:34.338Z,44.17
2023-03-02T04:57:01.124Z,40.45
2023-03-02T04:59:29.414Z,39.97
2023-03-02T05:01:59.275Z,38.42
2023-03-02T05:04:27.669Z,40.67
2023-03-02T05:06:54.952Z,39.72
2023-03-02T05:09:27.194Z,46.58
2023-03-02T05:11:58.949Z,41.35
2023-03-02T05:14:26.380Z,35.10
2023-03-02T05:16:53.504Z,41.78
2023-03-02T05:19:20.359Z,42.47
2023-03-02T05:21:47.158Z,35.53
2023-03-02T05:24:14.112Z,43.28
2023-03-02T05:26:41.504Z,34.92
2023-03-02T05:29:08.795Z,35.95
2023-03-02T05:31:46.115Z,37.47
2023-03-02T05:34:16.417Z,47.65
2023-03-02T05:36:44.113Z,39.13
2023-03-02T05:39:11.347Z,38.10
2023-03-02T05:41:39.033Z,35.85
2023-03-02T05:44:09.441Z,33.88
2023-03-02T05:46:37.023Z,35.90
2023-03-02T05:49:04.028Z,42.03
2023-03-02T05:51:30.879Z,34.08
2023-03-02T05:53:57.750Z,42.90
2023-03-02T05:56:24.602Z,32.65
2023-03-02T05:58:51.413Z,28.30
2023-03-02T06:01:18.220Z,35.78
2023-03-02T06:03:45.064Z,40.00
2023-03-02T06:06:15.265Z,36.03
2023-03-02T06:08:43.412Z,40.33
2023-03-02T06:11:11.131Z,32.83
2023-03-02T06:13:38.438Z,39.15
2023-03-02T06:16:05.675Z,34.10
2023-03-02T06:18:33.154Z,40.35
2023-03-02T06:21:00.050Z,39.53
2023-03-02T06:23:27.047Z,43.83
2023-03-02T06:25:54.099Z,41.67
2023-03-02T06:28:21.948Z,43.17
2023-03-02T06:30:49.883Z,38.97
2023-03-02T06:33:21.469Z,37.95
2023-03-02T06:35:49.588Z,37.63
2023-03-02T06:38:16.606Z,40.08
2023-03-02T06:40:43.811Z,32.13
2023-03-02T06:43:10.959Z,29.90
2023-03-02T06:45:37.928Z,34.05
2023-03-02T06:48:05.611Z,29.27
2023-03-02T06:50:32.994Z,32.17
2023-03-02T06:52:59.853Z,32.42
2023-03-02T06:55:26.731Z,32.65
2023-03-02T06:57:53.711Z,28.80
2023-03-02T07:00:28.247Z,28.52
2023-03-02T07:02:56.190Z,29.67
2023-03-02T07:05:24.567Z,31.90
2023-03-02T07:07:51.804Z,34.03
2023-03-02T07:10:18.827Z,31.85
2023-03-02T07:12:45.818Z,29.75
2023-03-02T07:15:14.301Z,33.78
2023-03-02T07:17:43.755Z,31.92
2023-03-02T07:20:13.752Z,31.52
2023-03-02T07:22:41.398Z,35.42
2023-03-02T07:25:09.952Z,29.95
2023-03-02T07:27:37.631Z,33.42
2023-03-02T07:30:05.981Z,27.50
2023-03-02T07:32:32.852Z,35.17
2023-03-02T07:34:59.967Z,32.33
2023-03-02T07:37:26.734Z,28.38
2023-03-02T07:39:53.585Z,31.30
2023-03-02T07:42:20.468Z,26.65
2023-03-02T07:44:47.819Z,29.48
2023-03-02T07:47:14.677Z,27.42
2023-03-02T07:49:41.538Z,27.13
2023-03-02T07:52:08.432Z,31.00
2023-03-02T07:54:35.638Z,30.15
2023-03-02T07:57:02.706Z,24.65
2023-03-02T07:59:29.580Z,26.98
2023-03-02T08:01:57.602Z,33.60
2023-03-02T08:04:25.284Z,23.90
2023-03-02T08:06:52.370Z,23.88
2023-03-02T08:09:19.250Z,24.23
2023-03-02T08:11:47.780Z,25.63
2023-03-02T08:14:14.683Z,26.40
2023-03-02T08:16:41.831Z,26.75
2023-03-02T08:19:08.928Z,25.70
2023-03-02T08:21:35.879Z,33.03
2023-03-02T08:24:03.019Z,24.00
2023-03-02T08:26:29.933Z,24.90
2023-03-02T08:28:56.840Z,26.65
2023-03-02T08:31:23.680Z,25.17
2023-03-02T08:33:50.717Z,26.60
2023-03-02T08:36:19.753Z,23.02
2023-03-02T08:38:47.978Z,22.38
2023-03-02T08:41:18.616Z,26.55
2023-03-02T08:43:45.874Z,22.33
2023-03-02T08:46:15.325Z,30.67
2023-03-02T08:48:42.320Z,27.50
2023-03-02T08:51:15.327Z,23.83
2023-03-02T08:53:45.300Z,20.20
2023-03-02T08:56:16.120Z,26.25
2023-03-02T08:58:43.133Z,22.48
2023-03-02T09:01:15.176Z,24.55
2023-03-02T09:03:42.269Z,21.85
2023-03-02T09:06:09.378Z,27.23
2023-03-02T09:08:36.354Z,23.60
2023-03-02T09:11:03.277Z,19.73
2023-03-02T09:13:30.094Z,24.42
2023-03-02T09:15:56.946Z,21.45
2023-03-02T09:18:23.865Z,23.40
2023-03-02T09:20:52.458Z,21.73
2023-03-02T09:23:20.666Z,21.92
2023-03-02T09:25:48.830Z,22.00
2023-03-02T09:28:17.005Z,18.98
2023-03-02T09:30:52.728Z,16.95
2023-03-02T09:33:20.564Z,21.85
2023-03-02T09:35:47.750Z,22.23
2023-03-02T09:38:18.247Z,22.38
2023-03-02T09:40:58.408Z,23.48
2023-03-02T09:43:35.212Z,19.60
2023-03-02T09:46:31.405Z,17.95
2023-03-02T09:49:17.271Z,20.60
2023-03-02T09:51:58.612Z,21.08
2023-03-02T09:54:25.658Z,17.55
2023-03-02T09:56:58.911Z,21.67
2023-03-02T09:59:41.551Z,23.67
2023-03-02T10:02:40.558Z,19.05
2023-03-02T10:05:16.780Z,17.75
2023-03-02T10:07:44.800Z,19.83
2023-03-02T10:10:31.945Z,20.20
2023-03-02T10:13:21.471Z,18.45
2023-03-02T10:16:09.625Z,19.85
2023-03-02T10:18:51.204Z,23.52
2023-03-02T10:21:37.490Z,19.98
2023-03-02T10:24:16.843Z,18.10
2023-03-02T10:26:46.698Z,17.20
2023-03-02T10:29:39.376Z,18.48
2023-03-02T10:32:15.517Z,19.02
2023-03-02T10:34:42.623Z,17.95
2023-03-02T10:37:15.908Z,24.23
2023-03-02T10:39:43.063Z,17.75
2023-03-02T10:42:24.386Z,21.83
2023-03-02T10:44:55.982Z,16.85
2023-03-02T10:47:26.307Z,22.52
2023-03-02T10:49:54.768Z,21.17
2023-03-02T10:52:24.311Z,20.85
2023-03-02T10:55:02.688Z,17.70
2023-03-02T10:57:35.782Z,17.88
2023-03-02T11:00:21.941Z,19.73
2023-03-02T11:02:57.993Z,19.30
2023-03-02T11:05:34.253Z,22.65
2023-03-02T11:08:08.525Z,17.52
2023-03-02T11:13:38.716Z,19.42
2023-03-02T11:16:24.439Z,19.52
2023-03-02T11:18:57.465Z,20.20
2023-03-02T11:21:29.437Z,18.33
2023-03-02T11:24:19.011Z,23.88
2023-03-02T11:27:07.177Z,20.95
2023-03-02T11:29:53.244Z,19.23
2023-03-02T11:32:34.305Z,22.30
2023-03-02T11:35:10.672Z,24.00
2023-03-02T11:37:46.468Z,18.80
2023-03-02T11:40:18.857Z,22.17
2023-03-02T11:42:46.880Z,28.17
2023-03-02T11:45:13.672Z,22.58
2023-03-02T11:48:03.464Z,22.02
2023-03-02T11:50:34.590Z,22.80
2023-03-02T11:53:14.369Z,19.42
2023-03-02T11:55:45.747Z,23.05
2023-03-02T11:58:22.116Z,19.25
2023-03-02T12:00:49.895Z,22.33
2023-03-02T12:03:16.716Z,18.23
2023-03-02T12:05:51.543Z,21.02
2023-03-02T12:08:21.487Z,18.58
2023-03-02T12:10:59.672Z,17.42
2023-03-02T12:13:36.402Z,19.30
2023-03-02T12:16:22.706Z,18.02
2023-03-02T12:18:53.915Z,16.73
2023-03-02T12:21:23.050Z,22.95
2023-03-02T12:23:50.000Z,18.23
2023-03-02T12:26:19.619Z,18.85
2023-03-02T12:29:21.601Z,20.85
2023-03-02T12:31:52.383Z,18.33
2023-03-02T12:34:22.244Z,16.33
2023-03-02T12:36:58.603Z,18.40
2023-03-02T12:39:49.139Z,17.27
2023-03-02T12:42:42.866Z,18.13
2023-03-02T12:45:40.528Z,19.08
2023-03-02T12:48:44.967Z,19.23
2023-03-02T12:51:22.372Z,22.13
2023-03-02T12:54:01.322Z,19.70
2023-03-02T12:56:28.350Z,19.70
2023-03-02T12:58:55.294Z,18.42
2023-03-02T13:01:25.611Z,17.38
2023-03-02T13:03:53.858Z,18.70
2023-03-02T13:06:23.118Z,15.52
2023-03-02T13:08:58.340Z,22.73
2023-03-02T13:11:36.297Z,20.08
2023-03-02T13:14:18.929Z,18.33
2023-03-02T13:17:04.412Z,21.98
2023-03-02T13:19:32.243Z,18.08
2023-03-02T13:22:00.265Z,15.48
2023-03-02T13:24:44.906Z,15.50
2023-03-02T13:27:23.419Z,16.73
2023-03-02T13:29:52.764Z,19.40
2023-03-02T13:32:24.600Z,15.30
2023-03-02T13:34:57.974Z,15.88
2023-03-02T13:37:43.756Z,21.67
2023-03-02T13:40:22.967Z,24.08
2023-03-02T13:42:49.901Z,19.73
2023-03-02T13:45:27.249Z,15.98
2023-03-02T13:47:55.926Z,20.05
2023-03-02T13:50:25.445Z,14.75
2023-03-02T13:52:55.325Z,20.25
2023-03-02T13:55:23.299Z,20.90
2023-03-02T13:57:52.930Z,18.45
2023-03-02T14:00:22.851Z,20.45
2023-03-02T14:02:50.546Z,18.27
2023-03-02T14:05:33.005Z,17.92
2023-03-02T14:08:01.145Z,14.27
2023-03-02T14:10:28.481Z,15.30
2023-03-02T14:13:13.267Z,16.77
2023-03-02T14:18:39.360Z,17.50
2023-03-02T14:21:26.764Z,17.67
2023-03-02T14:23:54.490Z,17.60
2023-03-02T14:26:44.050Z,21.75
2023-03-02T14:29:31.969Z,21.65
2023-03-02T14:32:01.998Z,20.25
2023-03-02T14:34:28.980Z,22.98
2023-03-02T14:36:59.195Z,18.33
2023-03-02T14:39:25.944Z,16.45
2023-03-02T14:41:54.724Z,15.40
2023-03-02T14:44:22.371Z,20.63
2023-03-02T14:46:49.327Z,15.73
2023-03-02T14:49:16.251Z,17.60
2023-03-02T14:51:45.073Z,17.35
2023-03-02T14:54:17.366Z,15.93
2023-03-02T14:56:44.486Z,18.98
2023-03-02T14:59:14.322Z,13.70
2023-03-02T15:01:44.448Z,19.45
2023-03-02T15:04:11.580Z,19.90
2023-03-02T15:06:40.666Z,17.48
2023-03-02T15:09:08.479Z,16.70
2023-03-02T15:11:35.748Z,15.63
2023-03-02T15:14:03.013Z,20.65
2023-03-02T15:16:29.993Z,15.27
2023-03-02T15:18:58.809Z,15.15
2023-03-02T15:21:26.972Z,18.65
2023-03-02T15:23:54.092Z,16.10
2023-03-02T15:26:20.943Z,20.98
2023-03-02T15:28:51.054Z,17.40
2023-03-02T15:31:18.748Z,15.27
2023-03-02T15:33:46.251Z,19.92
2023-03-02T15:36:14.455Z,16.00
2023-03-02T15:38:41.670Z,15.63
2023-03-02T15:41:12.265Z,12.85
2023-03-02T15:43:39.570Z,13.52
2023-03-02T15:46:09.289Z,15.48
2023-03-02T15:48:37.010Z,12.57
2023-03-02T15:51:06.556Z,16.00
2023-03-02T15:53:37.864Z,16.17
2023-03-02T15:56:10.867Z,14.38
2023-03-02T15:58:37.809Z,17.90
2023-03-02T16:01:11.694Z,12.93
2023-03-02T16:03:38.896Z,13.07
2023-03-02T16:06:07.273Z,16.10
2023-03-02T16:08:34.711Z,12.25
2023-03-02T16:11:04.251Z,8.98
2023-03-02T16:13:31.295Z,16.85
2023-03-02T16:16:02.139Z,17.25
2023-03-02T16:18:29.083Z,11.50
2023-03-02T16:20:56.045Z,13.57
2023-03-02T16:23:23.339Z,12.15
2023-03-02T16:25:50.875Z,11.60
2023-03-02T16:28:19.034Z,9.80
2023-03-02T16:30:46.551Z,9.50
2023-03-02T16:33:17.221Z,13.50
2023-03-02T16:35:44.643Z,10.18
2023-03-02T16:38:11.484Z,10.52
2023-03-02T16:40:40.534Z,11.05
2023-03-02T16:43:10.503Z,10.07
2023-03-02T16:45:37.981Z,7.30
2023-03-02T16:48:06.297Z,8.90
2023-03-02T16:50:33.676Z,11.85
2023-03-02T16:53:00.638Z,9.15
2023-03-02T16:55:27.622Z,12.65
2023-03-02T16:57:54.610Z,11.52
2023-03-02T17:00:22.904Z,10.93
2023-03-02T17:02:51.205Z,10.90
2023-03-02T17:05:20.154Z,9.45
2023-03-02T17:07:47.860Z,11.98
2023-03-02T17:10:19.819Z,9.30
2023-03-02T17:12:46.931Z,10.90
2023-03-02T17:15:16.875Z,9.15
2023-03-02T17:17:43.860Z,10.88
2023-03-02T17:20:12.618Z,13.43
2023-03-02T17:22:39.793Z,12.15
2023-03-02T17:25:07.222Z,12.07
2023-03-02T17:27:34.160Z,10.85
2023-03-02T17:30:01.150Z,11.38
2023-03-02T17:32:28.057Z,11.95
2023-03-02T17:34:55.145Z,12.07
2023-03-02T17:37:22.854Z,10.73
2023-03-02T17:39:50.964Z,12.27
2023-03-02T17:42:18.227Z,14.65
2023-03-02T17:44:45.084Z,13.02
2023-03-02T17:47:15.014Z,12.73
2023-03-02T17:49:45.375Z,11.95
2023-03-02T17:52:13.448Z,12.38
2023-03-02T17:54:40.380Z,12.35
2023-03-02T17:57:07.957Z,11.27
2023-03-02T17:59:35.160Z,13.45
2023-03-02T18:02:02.056Z,14.23
2023-03-02T18:04:29.226Z,14.95
2023-03-02T18:06:56.295Z,15.20
2023-03-02T18:09:23.289Z,10.15
2023-03-02T18:11:50.135Z,13.73
2023-03-02T18:14:19.769Z,15.80
2023-03-02T18:16:47.112Z,15.95
2023-03-02T18:19:14.043Z,11.73
2023-03-02T18:21:41.846Z,16.00
2023-03-02T18:24:09.729Z,15.57
2023-03-02T18:26:37.327Z,9.80
2023-03-02T18:29:04.965Z,12.98
2023-03-02T18:31:34.041Z,16.23
2023-03-02T18:34:01.806Z,13.75
2023-03-02T18:36:29.026Z,14.30
2023-03-02T18:38:56.037Z,11.43
2023-03-02T18:41:24.462Z,11.43
2023-03-02T18:43:51.815Z,11.30
2023-03-02T18:46:22.676Z,15.82
2023-03-02T18:48:50.622Z,13.45
2023-03-02T18:51:22.023Z,15.68
2023-03-02T18:53:49.558Z,11.68
2023-03-02T18:56:16.841Z,10.68
2023-03-02T18:58:44.446Z,15.18
2023-03-02T19:01:11.768Z,17.27
2023-03-02T19:03:39.096Z,10.75
2023-03-02T19:06:08.146Z,10.60
2023-03-02T19:08:36.121Z,14.27
2023-03-02T19:11:04.882Z,11.63
2023-03-02T19:13:31.874Z,10.95
2023-03-02T19:16:00.676Z,16.42
2023-03-02T19:18:27.619Z,10.45
2023-03-02T19:20:54.865Z,13.20
2023-03-02T19:23:22.040Z,10.02
2023-03-02T19:25:48.908Z,12.77
2023-03-02T19:28:16.379Z,15.07
2023-03-02T19:30:43.260Z,13.07
2023-03-02T19:33:10.236Z,13.57
2023-03-02T19:35:37.858Z,11.43
2023-03-02T19:38:06.086Z,12.75
2023-03-02T19:40:34.526Z,10.90
2023-03-02T19:43:02.558Z,13.05
2023-03-02T19:45:32.531Z,13.35
2023-03-02T19:48:00.727Z,14.15
2023-03-02T19:50:28.530Z,13.73
2023-03-02T19:52:56.366Z,11.20
2023-03-02T19:55:24.953Z,14.50
2023-03-02T19:57:59.482Z,18.45
2023-03-02T20:00:28.961Z,13.00
2023-03-02T20:02:56.473Z,16.92
2023-03-02T20:05:25.105Z,14.75
2023-03-02T20:07:52.076Z,18.20
2023-03-02T20:10:32.313Z,13.68
2023-03-02T20:13:00.684Z,20.63
2023-03-02T20:15:29.949Z,18.55
2023-03-02T20:17:58.361Z,16.88
2023-03-02T20:20:28.020Z,22.02
2023-03-02T20:22:55.139Z,16.05
2023-03-02T20:25:22.050Z,15.27
2023-03-02T20:27:51.835Z,15.52
2023-03-02T20:30:30.145Z,20.02
2023-03-02T20:32:58.262Z,22.15
2023-03-02T20:35:27.519Z,17.83
2023-03-02T20:37:57.019Z,24.30
2023-03-02T20:40:25.122Z,23.80
2023-03-02T20:42:52.543Z,15.18
2023-03-02T20:45:19.619Z,25.10
2023-03-02T20:47:47.393Z,20.23
2023-03-02T20:50:20.246Z,21.67
2023-03-02T20:52:47.442Z,18.77
2023-03-02T20:55:14.491Z,13.95
2023-03-02T20:57:41.552Z,21.08
2023-03-02T21:00:11.913Z,24.65
2023-03-02T21:02:38.753Z,17.17
2023-03-02T21:05:06.219Z,19.92
2023-03-02T21:07:35.925Z,21.08
2023-03-02T21:10:06.425Z,17.83
2023-03-02T21:12:35.872Z,20.35
2023-03-02T21:15:03.390Z,19.88
2023-03-02T21:17:31.485Z,14.85
2023-03-02T21:19:58.462Z,24.73
2023-03-02T21:22:25.523Z,19.33
2023-03-02T21:24:55.692Z,20.40
2023-03-02T21:27:22.699Z,18.20
2023-03-02T21:29:49.875Z,18.60
2023-03-02T21:32:16.846Z,19.73
2023-03-02T21:34:44.895Z,17.58
2023-03-02T21:37:11.823Z,24.40
2023-03-02T21:39:38.674Z,23.85
2023-03-02T21:42:05.679Z,25.20
2023-03-02T21:44:32.499Z,18.85
2023-03-02T21:46:59.372Z,19.92
2023-03-02T21:49:26.311Z,26.23
2023-03-02T21:51:53.174Z,30.30
2023-03-02T21:54:20.339Z,25.02
2023-03-02T21:56:47.312Z,25.08
2023-03-02T21:59:14.222Z,24.40
2023-03-02T22:01:44.198Z,34.20
2023-03-02T22:04:11.131Z,26.60
2023-03-02T22:06:38.396Z,27.40
2023-03-02T22:09:05.374Z,25.75
2023-03-02T22:11:37.193Z,34.67
2023-03-02T22:14:12.228Z,27.67
2023-03-02T22:16:41.657Z,37.28
2023-03-02T22:19:32.543Z,30.35
2023-03-02T22:22:03.211Z,32.53
2023-03-02T22:24:31.882Z,28.02
2023-03-02T22:27:01.899Z,37.20
2023-03-02T22:29:43.870Z,29.65
2023-03-02T22:32:17.022Z,34.22
2023-03-02T22:34:45.142Z,35.83
2023-03-02T22:37:19.472Z,28.45
2023-03-02T22:39:47.697Z,29.08
2023-03-02T22:42:20.923Z,31.55
2023-03-02T22:45:13.164Z,27.27
2023-03-02T22:47:40.692Z,23.60
2023-03-02T22:50:22.623Z,34.78
2023-03-02T22:52:49.812Z,31.48
2023-03-02T22:55:42.929Z,44.10
2023-03-02T22:58:28.534Z,33.47
2023-03-02T23:00:57.276Z,33.60
2023-03-02T23:03:44.966Z,31.70
2023-03-02T23:06:38.488Z,25.25
2023-03-02T23:09:06.759Z,29.10
2023-03-02T23:11:39.746Z,29.33
2023-03-02T23:14:25.503Z,25.00
2023-03-02T23:16:56.854Z,31.67
2023-03-02T23:19:27.396Z,23.75
2023-03-02T23:21:54.708Z,18.00
2023-03-02T23:24:22.186Z,21.77
2023-03-02T23:26:51.008Z,17.95
2023-03-02T23:29:19.777Z,22.27
2023-03-02T23:31:47.275Z,22.95
2023-03-02T23:34:14.421Z,24.88
2023-03-02T23:36:42.058Z,19.60
2023-03-02T23:39:10.248Z,16.65
2023-03-02T23:41:38.707Z,19.45
2023-03-02T23:44:07.187Z,22.63
2023-03-02T23:46:34.375Z,24.40
2023-03-02T23:49:01.358Z,20.02
2023-03-02T23:51:28.186Z,21.52
2023-03-02T23:53:55.109Z,28.92
2023-03-02T23:56:22.800Z,23.23
2023-03-02T23:58:49.884Z,25.95
